Watsonville, California
Current Conditions -  °F | °C
As of 3:53 AM on Thursday 27 Nov 2014 (Local Time) from KWVI Reporting Station
Clear Clear  
Wind Chill: 52°   Ceiling: Unl
Heat Index: 52°   Visibility: 10mi
Dew Point: 41°   Wind: 3mph
Humidity: 66%   Direction: 30°NNE
Pressure: 30.16"   Gusts: NA
Location:  36.91°N, 121.75°W
Report Text: KWVI 271153Z AUTO 03003KT 10SM CLR 11/05 A3016 RMK AO2 SLP213 T01110050 10139 20094 58009
Loading
Personal Weather Stations






























Interactive Weather Map New forecast layout! Learn more

10-Day Weather Forecast

Advertisements
Track Severe Weather on mobile